createdAt,value
2018-11-07T00:00:24.389Z,60505.60
2018-11-07T00:02:52.588Z,60468.00
2018-11-07T00:05:20.987Z,60459.87
2018-11-07T00:07:49.183Z,60473.09
2018-11-07T00:10:17.334Z,60483.25
2018-11-07T00:12:45.496Z,60469.02
2018-11-07T00:15:14.912Z,60456.82
2018-11-07T00:17:43.317Z,60476.13
2018-11-07T00:20:12.387Z,60471.05
2018-11-07T00:22:40.663Z,60482.23
2018-11-07T00:25:10.072Z,60485.28
2018-11-07T00:27:38.448Z,60456.82
2018-11-07T00:30:07.387Z,60470.04
2018-11-07T00:32:35.511Z,60487.31
2018-11-07T00:35:03.729Z,60452.76
2018-11-07T00:37:31.859Z,60481.21
2018-11-07T00:40:00.039Z,60466.99
2018-11-07T00:42:28.351Z,60483.25
2018-11-07T00:44:56.396Z,60468.00
2018-11-07T00:47:24.559Z,60464.96
2018-11-07T00:49:52.730Z,60476.13
2018-11-07T00:52:20.899Z,60484.26
2018-11-07T00:54:49.064Z,60471.05
2018-11-07T00:57:17.252Z,60485.28
2018-11-07T00:59:45.415Z,60473.09
2018-11-07T01:02:13.638Z,60450.73
2018-11-07T01:04:41.794Z,60457.84
2018-11-07T01:07:09.976Z,60465.97
2018-11-07T01:09:38.175Z,60487.31
2018-11-07T01:12:06.346Z,60458.86
2018-11-07T01:14:34.495Z,60453.78
2018-11-07T01:17:02.660Z,60464.96
2018-11-07T01:19:30.821Z,60449.71
2018-11-07T01:21:59.008Z,60461.91
2018-11-07T01:24:27.202Z,60482.23
2018-11-07T01:26:55.383Z,60477.15
2018-11-07T01:29:23.563Z,60469.02
2018-11-07T01:31:51.781Z,60485.28
2018-11-07T01:34:19.899Z,60475.12
2018-11-07T01:36:48.067Z,60481.21
2018-11-07T01:39:16.265Z,60472.07
2018-11-07T01:41:44.531Z,60464.96
2018-11-07T01:44:12.667Z,60489.34
2018-11-07T01:46:40.845Z,60471.05
2018-11-07T01:49:09.022Z,60470.04
2018-11-07T01:51:37.179Z,60473.09
2018-11-07T01:54:05.816Z,60472.07
2018-11-07T01:56:34.004Z,60476.13
2018-11-07T01:59:02.220Z,60465.97
2018-11-07T02:01:30.378Z,60501.54
2018-11-07T02:03:58.597Z,60499.50
2018-11-07T02:06:26.743Z,60466.99
2018-11-07T02:08:54.912Z,60490.36
2018-11-07T02:11:23.083Z,60485.28
2018-11-07T02:13:51.235Z,60491.38
2018-11-07T02:16:19.398Z,60507.64
2018-11-07T02:18:47.567Z,60498.49
2018-11-07T02:21:15.752Z,60479.18
2018-11-07T02:23:43.907Z,60487.31
2018-11-07T02:26:12.157Z,60488.33
2018-11-07T02:28:40.266Z,60479.18
2018-11-07T02:31:08.427Z,60472.07
2018-11-07T02:33:36.618Z,60503.57
2018-11-07T02:36:04.791Z,60468.00
2018-11-07T02:38:32.951Z,60466.99
2018-11-07T02:41:01.141Z,60475.12
2018-11-07T02:43:29.311Z,60524.91
2018-11-07T02:45:57.503Z,60457.84
2018-11-07T02:48:25.660Z,60500.52
2018-11-07T02:50:53.851Z,60496.46
2018-11-07T02:53:22.171Z,60511.70
2018-11-07T02:55:50.244Z,60494.43
2018-11-07T02:58:18.408Z,60486.29
2018-11-07T03:00:46.619Z,60478.16
2018-11-07T03:03:14.814Z,60502.55
2018-11-07T03:05:42.983Z,60512.72
2018-11-07T03:08:11.138Z,60492.39
2018-11-07T03:10:39.358Z,60465.97
2018-11-07T03:13:07.470Z,60486.29
2018-11-07T03:15:35.630Z,60484.26
2018-11-07T03:18:03.834Z,60510.68
2018-11-07T03:20:31.995Z,60476.13
2018-11-07T03:23:00.182Z,60513.73
2018-11-07T03:25:28.351Z,60499.50
2018-11-07T03:27:56.565Z,60485.28
2018-11-07T03:30:24.727Z,60485.28
2018-11-07T03:32:52.887Z,60464.96
2018-11-07T03:35:27.987Z,60480.20
2018-11-07T03:37:56.835Z,60490.36
2018-11-07T03:40:25.712Z,60485.28
2018-11-07T03:42:53.893Z,60495.44
2018-11-07T03:45:27.382Z,60465.97
2018-11-07T03:47:55.541Z,60508.65
2018-11-07T03:50:23.715Z,60493.41
2018-11-07T03:52:51.887Z,60512.72
2018-11-07T03:55:20.151Z,60498.49
2018-11-07T03:57:48.326Z,60502.55
2018-11-07T04:00:16.523Z,60508.65
2018-11-07T04:02:44.687Z,60483.25
2018-11-07T04:05:12.904Z,60526.95
2018-11-07T04:07:42.234Z,60495.44
2018-11-07T04:10:10.612Z,60519.83
2018-11-07T04:12:38.782Z,60485.28
2018-11-07T04:15:07.571Z,60490.36
2018-11-07T04:17:35.739Z,60490.36
2018-11-07T04:20:04.683Z,60523.89
2018-11-07T04:22:32.847Z,60505.60
2018-11-07T04:25:01.028Z,60501.54
2018-11-07T04:27:29.264Z,60484.26
2018-11-07T04:29:57.370Z,60492.39
2018-11-07T04:32:25.584Z,60497.47
2018-11-07T04:34:53.827Z,60482.23
2018-11-07T04:37:22.003Z,60497.47
2018-11-07T04:39:50.188Z,60504.59
2018-11-07T04:42:18.351Z,60502.55
2018-11-07T04:44:46.527Z,60513.73
2018-11-07T04:47:14.740Z,60513.73
2018-11-07T04:49:42.887Z,60509.67
2018-11-07T04:52:11.079Z,60491.38
2018-11-07T04:54:39.238Z,60504.59
2018-11-07T04:57:07.651Z,60494.43
2018-11-07T04:59:35.927Z,60496.46
2018-11-07T05:02:04.105Z,60488.33
2018-11-07T05:04:32.272Z,60503.57
2018-11-07T05:07:00.431Z,60498.49
2018-11-07T05:09:28.627Z,60502.55
2018-11-07T05:11:56.818Z,60463.94
2018-11-07T05:14:25.036Z,60531.01
2018-11-07T05:16:53.190Z,60527.96
2018-11-07T05:19:21.372Z,60503.57
2018-11-07T05:21:49.531Z,60508.65
2018-11-07T05:24:17.711Z,60503.57
2018-11-07T05:26:45.875Z,60506.62
2018-11-07T05:29:14.044Z,60504.59
2018-11-07T05:31:42.216Z,60485.28
2018-11-07T05:34:10.375Z,60497.47
2018-11-07T05:36:38.547Z,60503.57
2018-11-07T05:39:08.226Z,60516.78
2018-11-07T05:41:36.395Z,60501.54
2018-11-07T05:44:04.703Z,60508.65
2018-11-07T05:46:32.867Z,60527.96
2018-11-07T05:49:01.076Z,60489.34
2018-11-07T05:51:29.203Z,60489.34
2018-11-07T05:53:57.377Z,60518.82
2018-11-07T05:56:25.551Z,60501.54
2018-11-07T05:58:53.742Z,60522.88
2018-11-07T06:01:21.961Z,60494.43
2018-11-07T06:03:50.184Z,60505.60
2018-11-07T06:06:18.332Z,60506.62
2018-11-07T06:08:46.483Z,60503.57
2018-11-07T06:11:14.669Z,60485.28
2018-11-07T06:13:42.836Z,60485.28
2018-11-07T06:16:11.068Z,60497.47
2018-11-07T06:18:39.162Z,60499.50
2018-11-07T06:21:07.360Z,60525.93
2018-11-07T06:23:35.528Z,60489.34
2018-11-07T06:26:03.724Z,60512.72
2018-11-07T06:28:31.883Z,60522.88
2018-11-07T06:31:00.055Z,60499.50
2018-11-07T06:33:28.241Z,60503.57
2018-11-07T06:35:56.421Z,60498.49
2018-11-07T06:38:24.592Z,60514.75
2018-11-07T06:40:52.746Z,60496.46
2018-11-07T06:43:20.926Z,60498.49
2018-11-07T06:45:49.116Z,60500.52
2018-11-07T06:48:17.311Z,60514.75
2018-11-07T06:50:45.475Z,60483.25
2018-11-07T06:53:13.642Z,60514.75
2018-11-07T06:55:41.870Z,60506.62
2018-11-07T06:58:10.034Z,60506.62
2018-11-07T07:00:38.207Z,60505.60
2018-11-07T07:03:06.513Z,60500.52
2018-11-07T07:05:34.676Z,60503.57
2018-11-07T07:08:02.856Z,60508.65
2018-11-07T07:10:31.020Z,60509.67
2018-11-07T07:12:59.227Z,60512.72
2018-11-07T07:15:27.396Z,60476.13
2018-11-07T07:17:55.618Z,60496.46
2018-11-07T07:20:23.787Z,60496.46
2018-11-07T07:22:51.967Z,60508.65
2018-11-07T07:25:20.142Z,60506.62
2018-11-07T07:27:48.423Z,60506.62
2018-11-07T07:30:17.994Z,60504.59
2018-11-07T07:32:46.618Z,60489.34
2018-11-07T07:35:15.312Z,60508.65
2018-11-07T07:37:43.495Z,60527.96
2018-11-07T07:40:13.946Z,60502.55
2018-11-07T07:42:42.895Z,60484.26
2018-11-07T07:45:13.028Z,60492.39
2018-11-07T07:47:41.907Z,60507.64
2018-11-07T07:50:12.033Z,60502.55
2018-11-07T07:52:40.607Z,60495.44
2018-11-07T07:55:09.310Z,60489.34
2018-11-07T07:57:38.851Z,60496.46
2018-11-07T08:00:14.754Z,60506.62
2018-11-07T08:02:45.516Z,60513.73
2018-11-07T08:05:13.685Z,60481.21
2018-11-07T08:07:42.151Z,60503.57
2018-11-07T08:10:12.588Z,60500.52
2018-11-07T08:12:41.165Z,60463.94
2018-11-07T08:15:09.989Z,60499.50
2018-11-07T08:17:38.630Z,60489.34
2018-11-07T08:20:08.315Z,60477.15
2018-11-07T08:22:36.524Z,60476.13
2018-11-07T08:25:04.739Z,60478.16
2018-11-07T08:27:33.191Z,60506.62
2018-11-07T08:30:01.342Z,60515.77
2018-11-07T08:32:29.512Z,60486.29
2018-11-07T08:34:57.686Z,60483.25
2018-11-07T08:37:25.832Z,60511.70
2018-11-07T08:39:53.983Z,60485.28
2018-11-07T08:42:22.205Z,60482.23
2018-11-07T08:44:50.299Z,60483.25
2018-11-07T08:47:18.473Z,60474.10
2018-11-07T08:49:46.624Z,60476.13
2018-11-07T08:52:14.791Z,60464.96
2018-11-07T08:54:42.957Z,60475.12
2018-11-07T08:57:11.123Z,60470.04
2018-11-07T08:59:39.280Z,60478.16
2018-11-07T09:02:07.503Z,60485.28
2018-11-07T09:04:35.615Z,60472.07
2018-11-07T09:07:03.792Z,60465.97
2018-11-07T09:09:31.943Z,60450.73
2018-11-07T09:12:00.139Z,60456.82
2018-11-07T09:14:28.339Z,60454.79
2018-11-07T09:16:56.495Z,60481.21
2018-11-07T09:19:24.678Z,60439.55
2018-11-07T09:21:52.871Z,60450.73
2018-11-07T09:24:21.236Z,60441.58
2018-11-07T09:26:49.338Z,60462.92
2018-11-07T09:29:17.564Z,60469.02
2018-11-07T09:31:46.232Z,60458.86
2018-11-07T09:34:14.395Z,60450.73
2018-11-07T09:36:42.583Z,60431.42
2018-11-07T09:39:11.361Z,60440.57
2018-11-07T09:41:39.543Z,60464.96
2018-11-07T09:44:07.836Z,60422.27
2018-11-07T09:46:36.183Z,60429.39
2018-11-07T09:49:04.388Z,60442.60
2018-11-07T09:51:32.555Z,60425.32
2018-11-07T09:54:01.422Z,60427.36
2018-11-07T09:56:29.592Z,60405.00
2018-11-07T09:58:57.763Z,60400.93
2018-11-07T10:01:25.974Z,60412.11
2018-11-07T10:03:54.119Z,60393.82
2018-11-07T10:06:22.308Z,60382.64
2018-11-07T10:08:50.443Z,60372.48
2018-11-07T10:11:18.586Z,60390.77
2018-11-07T10:13:46.751Z,60370.45
2018-11-07T10:16:14.901Z,60380.61
2018-11-07T10:18:43.035Z,60355.21
2018-11-07T10:21:11.190Z,60361.30
2018-11-07T10:23:39.339Z,60374.52
2018-11-07T10:26:07.511Z,60363.34
2018-11-07T10:28:35.781Z,60365.37
2018-11-07T10:31:03.810Z,60360.29
2018-11-07T10:33:31.969Z,60367.40
2018-11-07T10:36:00.119Z,60354.19
2018-11-07T10:38:28.367Z,60373.50
2018-11-07T10:40:56.438Z,60351.14
2018-11-07T10:43:24.591Z,60377.56
2018-11-07T10:45:52.796Z,60374.52
2018-11-07T10:48:20.911Z,60368.42
2018-11-07T10:50:49.067Z,60345.04
2018-11-07T10:53:17.237Z,60378.58
2018-11-07T10:55:45.439Z,60376.55
2018-11-07T10:58:13.580Z,60372.48
2018-11-07T11:00:46.934Z,60373.50
2018-11-07T11:03:20.418Z,60331.84
2018-11-07T11:05:48.583Z,60351.14
2018-11-07T11:08:16.762Z,60332.85
2018-11-07T11:10:44.921Z,60352.16
2018-11-07T11:13:13.304Z,60361.30
2018-11-07T11:15:41.466Z,60354.19
2018-11-07T11:18:09.653Z,60349.11
2018-11-07T11:20:37.830Z,60343.01
2018-11-07T11:23:06.040Z,60358.25
2018-11-07T11:25:34.190Z,60350.12
2018-11-07T11:28:02.373Z,60348.09
2018-11-07T11:30:30.601Z,60351.14
2018-11-07T11:32:58.769Z,60363.34
2018-11-07T11:35:27.040Z,60347.08
2018-11-07T11:37:55.082Z,60370.45
2018-11-07T11:40:23.243Z,60338.95
2018-11-07T11:42:51.390Z,60360.29
2018-11-07T11:45:19.571Z,60362.32
2018-11-07T11:47:47.750Z,60350.12
2018-11-07T11:50:17.200Z,60351.14
2018-11-07T11:52:46.376Z,60355.21
2018-11-07T11:55:14.531Z,60351.14
2018-11-07T11:57:43.239Z,60345.04
2018-11-07T12:00:13.909Z,60359.27
2018-11-07T12:02:41.891Z,60374.52
2018-11-07T12:05:11.587Z,60350.12
2018-11-07T12:07:40.031Z,60323.71
2018-11-07T12:10:25.194Z,60336.91
2018-11-07T12:12:54.471Z,60342.00
2018-11-07T12:15:23.975Z,60334.88
2018-11-07T12:17:52.507Z,60348.09
2018-11-07T12:20:20.871Z,60346.06
2018-11-07T12:22:49.281Z,60348.09
2018-11-07T12:25:18.365Z,60332.85
2018-11-07T12:27:46.555Z,60354.19
2018-11-07T12:30:16.581Z,60340.98
2018-11-07T12:32:45.848Z,60348.09
2018-11-07T12:35:14.525Z,60328.79
2018-11-07T12:37:42.900Z,60366.39
2018-11-07T12:40:11.798Z,60371.46
2018-11-07T12:42:40.088Z,60363.34
2018-11-07T12:45:10.708Z,60353.18
2018-11-07T12:47:39.274Z,60340.98
2018-11-07T12:50:09.595Z,60380.61
2018-11-07T12:52:37.591Z,60345.04
2018-11-07T12:55:07.015Z,60361.30
2018-11-07T12:57:35.776Z,60371.46
2018-11-07T13:00:04.311Z,60351.14
2018-11-07T13:02:32.535Z,60357.24
2018-11-07T13:05:00.697Z,60352.16
2018-11-07T13:07:28.879Z,60375.53
2018-11-07T13:09:57.051Z,60360.29
2018-11-07T13:12:25.207Z,60365.37
2018-11-07T13:14:53.364Z,60376.55
2018-11-07T13:17:21.548Z,60373.50
2018-11-07T13:19:49.724Z,60368.42
2018-11-07T13:22:17.896Z,60353.18
2018-11-07T13:24:46.063Z,60356.22
2018-11-07T13:27:14.243Z,60361.30
2018-11-07T13:29:42.421Z,60371.46
2018-11-07T13:32:10.591Z,60364.35
2018-11-07T13:34:38.787Z,60365.37
2018-11-07T13:37:07.164Z,60359.27
2018-11-07T13:39:35.136Z,60383.66
2018-11-07T13:42:03.355Z,60367.40
2018-11-07T13:44:31.498Z,60371.46
2018-11-07T13:46:59.858Z,60372.48
2018-11-07T13:49:28.042Z,60382.64
2018-11-07T13:51:56.234Z,60394.84
2018-11-07T13:54:24.417Z,60375.53
2018-11-07T13:56:52.576Z,60386.71
2018-11-07T13:59:20.785Z,60377.56
2018-11-07T14:01:48.931Z,60379.59
2018-11-07T14:04:17.166Z,60366.39
2018-11-07T14:06:45.463Z,60383.66
2018-11-07T14:09:13.710Z,60385.69
2018-11-07T14:11:42.128Z,60374.52
2018-11-07T14:14:10.311Z,60393.82
2018-11-07T14:16:38.750Z,60397.89
2018-11-07T14:19:07.657Z,60397.89
2018-11-07T14:21:36.053Z,60380.61
2018-11-07T14:24:04.641Z,60372.48
2018-11-07T14:26:32.859Z,60389.76
2018-11-07T14:29:01.988Z,60389.76
2018-11-07T14:31:30.500Z,60379.59
2018-11-07T14:33:59.465Z,60382.64
2018-11-07T14:36:27.667Z,60389.76
2018-11-07T14:38:57.136Z,60392.80
2018-11-07T14:41:25.952Z,60377.56
2018-11-07T14:43:54.716Z,60390.77
2018-11-07T14:46:22.986Z,60388.74
2018-11-07T14:48:51.195Z,60391.79
2018-11-07T14:51:19.399Z,60386.71
2018-11-07T14:53:47.858Z,60407.03
2018-11-07T14:56:16.237Z,60393.82
2018-11-07T14:58:44.545Z,60370.45
2018-11-07T15:01:12.846Z,60372.48
2018-11-07T15:03:41.823Z,60397.89
2018-11-07T15:06:10.336Z,60380.61
2018-11-07T15:08:38.691Z,60384.68
2018-11-07T15:11:07.911Z,60398.90
2018-11-07T15:13:37.000Z,60410.08
2018-11-07T15:16:05.241Z,60419.23
2018-11-07T15:18:33.480Z,60387.72
2018-11-07T15:21:01.718Z,60405.00
2018-11-07T15:23:30.558Z,60409.07
2018-11-07T15:25:58.792Z,60398.90
2018-11-07T15:28:26.981Z,60384.68
2018-11-07T15:30:55.163Z,60378.58
2018-11-07T15:33:23.368Z,60375.53
2018-11-07T15:35:51.647Z,60376.55
2018-11-07T15:38:19.807Z,60390.77
2018-11-07T15:40:47.950Z,60405.00
2018-11-07T15:43:16.263Z,60394.84
2018-11-07T15:45:44.567Z,60399.92
2018-11-07T15:48:12.798Z,60400.93
2018-11-07T15:50:46.335Z,60406.02
2018-11-07T15:53:14.653Z,60402.97
2018-11-07T15:55:43.161Z,60393.82
2018-11-07T15:58:11.371Z,60393.82
2018-11-07T16:00:39.574Z,60413.13
2018-11-07T16:03:07.751Z,60412.11
2018-11-07T16:05:35.964Z,60414.14
2018-11-07T16:08:04.185Z,60428.37
2018-11-07T16:10:32.358Z,60416.18
2018-11-07T16:13:00.762Z,60414.14
2018-11-07T16:15:28.982Z,60417.20
2018-11-07T16:17:57.089Z,60395.86
2018-11-07T16:20:25.295Z,60426.34
2018-11-07T16:22:53.540Z,60423.29
2018-11-07T16:25:21.637Z,60424.31
2018-11-07T16:27:49.813Z,60419.23
2018-11-07T16:30:19.223Z,60427.36
2018-11-07T16:32:47.391Z,60427.36
2018-11-07T16:35:15.879Z,60417.20
2018-11-07T16:37:44.197Z,60425.32
2018-11-07T16:40:16.551Z,60419.23
2018-11-07T16:42:45.005Z,60419.23
2018-11-07T16:45:14.003Z,60415.16
2018-11-07T16:47:42.436Z,60423.29
2018-11-07T16:50:11.786Z,60435.48
2018-11-07T16:52:40.021Z,60424.31
2018-11-07T16:55:08.171Z,60410.08
2018-11-07T16:57:37.018Z,60423.29
2018-11-07T17:00:07.235Z,60412.11
2018-11-07T17:02:35.403Z,60438.53
2018-11-07T17:05:03.647Z,60443.61
2018-11-07T17:07:31.735Z,60442.60
2018-11-07T17:09:59.898Z,60412.11
2018-11-07T17:12:28.073Z,60431.42
2018-11-07T17:14:56.234Z,60437.52
2018-11-07T17:17:24.388Z,60432.44
2018-11-07T17:19:52.567Z,60436.50
2018-11-07T17:22:20.727Z,60431.42
2018-11-07T17:24:48.908Z,60447.68
2018-11-07T17:27:17.088Z,60437.52
2018-11-07T17:29:45.244Z,60446.66
2018-11-07T17:32:13.431Z,60434.47
2018-11-07T17:34:41.606Z,60444.63
2018-11-07T17:37:09.802Z,60420.24
2018-11-07T17:39:37.967Z,60418.21
2018-11-07T17:42:06.422Z,60442.60
2018-11-07T17:44:34.606Z,60440.57
2018-11-07T17:47:02.772Z,60432.44
2018-11-07T17:49:30.979Z,60428.37
2018-11-07T17:52:00.576Z,60450.73
2018-11-07T17:54:28.744Z,60435.48
2018-11-07T18:02:42.077Z,60440.57
2018-11-07T18:05:10.240Z,60436.50
2018-11-07T18:07:38.877Z,60436.50
2018-11-07T18:10:08.968Z,60432.44
2018-11-07T18:12:37.135Z,60449.71
2018-11-07T18:15:06.099Z,60427.36
2018-11-07T18:17:34.272Z,60429.39
2018-11-07T18:20:02.446Z,60437.52
2018-11-07T18:22:30.660Z,60444.63
2018-11-07T18:24:58.877Z,60449.71
2018-11-07T18:27:27.411Z,60456.82
2018-11-07T18:29:55.493Z,60450.73
2018-11-07T18:32:23.685Z,60427.36
2018-11-07T18:34:51.885Z,60408.05
2018-11-07T18:37:20.010Z,60430.40
2018-11-07T18:39:48.183Z,60452.76
2018-11-07T18:42:16.339Z,60422.27
2018-11-07T18:44:44.512Z,60432.44
2018-11-07T18:47:12.674Z,60455.81
2018-11-07T18:49:40.839Z,60450.73
2018-11-07T18:52:09.064Z,60447.68
2018-11-07T18:54:37.815Z,60431.42
2018-11-07T18:57:06.148Z,60468.00
2018-11-07T18:59:34.327Z,60437.52
2018-11-07T19:02:02.600Z,60444.63
2018-11-07T19:04:30.801Z,60439.55
2018-11-07T19:06:59.180Z,60428.37
2018-11-07T19:09:27.375Z,60461.91
2018-11-07T19:11:55.586Z,60414.14
2018-11-07T19:14:23.779Z,60440.57
2018-11-07T19:16:52.085Z,60457.84
2018-11-07T19:19:20.218Z,60461.91
2018-11-07T19:21:48.432Z,60454.79
2018-11-07T19:24:16.906Z,60448.70
2018-11-07T19:26:45.327Z,60457.84
2018-11-07T19:29:13.750Z,60432.44
2018-11-07T19:31:42.048Z,60444.63
2018-11-07T19:34:10.416Z,60448.70
2018-11-07T19:36:39.999Z,60425.32
2018-11-07T19:39:08.971Z,60441.58
2018-11-07T19:41:37.982Z,60447.68
2018-11-07T19:44:06.329Z,60436.50
2018-11-07T19:46:34.615Z,60452.76
2018-11-07T19:49:06.303Z,60438.53
2018-11-07T19:51:36.234Z,60463.94
2018-11-07T19:54:05.100Z,60439.55
2018-11-07T19:56:33.696Z,60436.50
2018-11-07T19:59:02.186Z,60441.58
2018-11-07T20:01:31.013Z,60436.50
2018-11-07T20:03:59.238Z,60458.86
2018-11-07T20:06:27.555Z,60444.63
2018-11-07T20:08:56.107Z,60435.48
2018-11-07T20:11:24.320Z,60433.45
2018-11-07T20:13:52.680Z,60464.96
2018-11-07T20:16:21.276Z,60469.02
2018-11-07T20:18:49.547Z,60440.57
2018-11-07T20:21:17.741Z,60452.76
2018-11-07T20:23:46.072Z,60431.42
2018-11-07T20:26:14.505Z,60432.44
2018-11-07T20:28:43.088Z,60437.52
2018-11-07T20:31:11.244Z,60430.40
2018-11-07T20:33:39.536Z,60445.65
2018-11-07T20:36:07.800Z,60451.75
2018-11-07T20:38:35.870Z,60439.55
2018-11-07T20:41:04.083Z,60455.81
2018-11-07T20:43:32.335Z,60418.21
2018-11-07T20:46:00.512Z,60445.65
2018-11-07T20:48:28.699Z,60444.63
2018-11-07T20:50:56.862Z,60430.40
2018-11-07T20:53:25.082Z,60444.63
2018-11-07T20:55:54.390Z,60442.60
2018-11-07T20:58:22.599Z,60442.60
2018-11-07T21:00:50.779Z,60454.79
2018-11-07T21:03:18.970Z,60443.61
2018-11-07T21:05:47.138Z,60440.57
2018-11-07T21:08:15.312Z,60473.09
2018-11-07T21:10:43.526Z,60416.18
2018-11-07T21:13:12.039Z,60444.63
2018-11-07T21:15:40.296Z,60438.53
2018-11-07T21:18:08.863Z,60437.52
2018-11-07T21:20:37.144Z,60456.82
2018-11-07T21:23:05.399Z,60452.76
2018-11-07T21:25:33.738Z,60451.75
2018-11-07T21:28:02.049Z,60451.75
2018-11-07T21:30:30.220Z,60432.44
2018-11-07T21:32:58.371Z,60464.96
2018-11-07T21:35:26.544Z,60453.78
2018-11-07T21:37:54.735Z,60449.71
2018-11-07T21:40:22.914Z,60458.86
2018-11-07T21:42:51.177Z,60461.91
2018-11-07T21:45:19.266Z,60481.21
2018-11-07T21:47:47.458Z,60454.79
2018-11-07T21:50:16.783Z,60451.75
2018-11-07T21:52:44.950Z,60446.66
2018-11-07T21:55:13.110Z,60436.50
2018-11-07T21:57:41.366Z,60455.81
2018-11-07T22:00:11.461Z,60440.57
2018-11-07T22:02:39.696Z,60465.97
2018-11-07T22:05:08.306Z,60453.78
2018-11-07T22:07:36.727Z,60460.89
2018-11-07T22:10:05.571Z,60437.52
2018-11-07T22:12:33.747Z,60443.61
2018-11-07T22:15:01.943Z,60450.73
2018-11-07T22:17:30.102Z,60441.58
2018-11-07T22:19:58.255Z,60458.86
2018-11-07T22:22:26.402Z,60444.63
2018-11-07T22:24:54.558Z,60459.87
2018-11-07T22:27:23.052Z,60446.66
2018-11-07T22:29:51.431Z,60454.79
2018-11-07T22:32:19.909Z,60460.89
2018-11-07T22:34:48.066Z,60453.78
2018-11-07T22:37:16.230Z,60473.09
2018-11-07T22:39:44.396Z,60463.94
2018-11-07T22:42:12.562Z,60449.71
2018-11-07T22:44:40.743Z,60443.61
2018-11-07T22:47:08.935Z,60465.97
2018-11-07T22:49:37.090Z,60445.65
2018-11-07T22:52:05.520Z,60448.70
2018-11-07T22:54:33.687Z,60458.86
2018-11-07T22:57:01.865Z,60452.76
2018-11-07T22:59:30.054Z,60460.89
2018-11-07T23:01:58.229Z,60480.20
2018-11-07T23:04:26.400Z,60456.82
2018-11-07T23:06:54.575Z,60462.92
2018-11-07T23:09:22.748Z,60441.58
2018-11-07T23:11:50.912Z,60470.04
2018-11-07T23:14:19.081Z,60470.04
2018-11-07T23:16:47.232Z,60464.96
2018-11-07T23:19:15.490Z,60444.63
2018-11-07T23:21:43.620Z,60454.79
2018-11-07T23:24:11.816Z,60470.04
2018-11-07T23:26:39.980Z,60460.89
2018-11-07T23:29:08.280Z,60442.60
2018-11-07T23:31:36.434Z,60468.00
2018-11-07T23:34:04.703Z,60465.97
2018-11-07T23:36:32.867Z,60454.79
2018-11-07T23:39:01.015Z,60450.73
2018-11-07T23:41:29.176Z,60454.79
2018-11-07T23:43:57.346Z,60461.91
2018-11-07T23:46:25.515Z,60463.94
2018-11-07T23:48:53.678Z,60456.82
2018-11-07T23:51:21.823Z,60465.97
2018-11-07T23:53:49.987Z,60459.87
2018-11-07T23:56:18.166Z,60466.99
2018-11-07T23:58:46.316Z,60463.94
